Capitol Logistics 7407

Operating for MZN



KTPA
Tampa International Airport
Tampa, Florida
KRFD
Chicago/Rockford International Airport
Rockford, Illinois

Activity Log

Date Flight Route Aircraft Duration
10/16/2019 CPX458 ENDED8 LACEN BRUTS Q118 ATL BWG SPI BDF QUOTE B738 2h 43m
09/12/2019 CPX458 ENDED8 LACEN BRUTS Q118 ATL BWG SPI BDF QUOTE B738 2h 31m
07/18/2019 CPX458 ENDED8 LACEN BRUTS Q118 ATL BWG SPI BDF QUOTE B738 2h 35m
06/28/2019 CPX458 ENDED8 LACEN BRUTS Q118 ATL J45 BNA J73 PXV BDF QUOTE B738 2h 20m

Route Details

Aircraft Information
Primary: Boeing 767-300BDSF
Backup: Airbus A300-600F
Route Data
Distance: 913nm
Duration: 2h 39m
Recm'd Route: ENDED8 LACEN BRUTS Q118 ATL BWG TTH JOT QUOTE
Origin Wx: KTPA 020353Z 23007KT 10SM FEW020 29/26 A3006 RMK AO2 SLP178 T02940256
Dest. Wx: KRFD 020354Z 08003KT 10SM CLR 19/12 A3015 RMK AO2 SLP207 T01890117 $
Notes: